Aviation Digital Data Service (ADDS)

Output produced by METARs form (1105 UTC 13 December 2017)
found at http://www.aviationweather.gov/adds/metars/
 
HUEN 131030Z 17005KT 9999 FEW023 FEW025CB 27/18 Q1017
TAF HUEN 130500Z 1306/1412 04003KT 9999 FEW020 FEW022CB 
     BECMG 1307/1312 18008KT FEW024 FEW026CB FM 131700 24005KT FEW021 FEW023CB 
     BECMG 1321/1324 35005KT FEW020 FEW022CB 
     TEMPO 1401/1406 VRB12KT 8000 FEW018 FEW020CB SCT100 
     BECMG 1407/1412 17009KT 9999 FEW024 FEW026CB
       
HUEN 131030Z 17005KT 9999 FEW023 FEW025CB 27/18 Q1017
TAF HUEN 130500Z 1306/1412 04003KT 9999 FEW020 FEW022CB 
     BECMG 1307/1312 18008KT FEW024 FEW026CB FM 131700 24005KT FEW021 FEW023CB 
     BECMG 1321/1324 35005KT FEW020 FEW022CB 
     TEMPO 1401/1406 VRB12KT 8000 FEW018 FEW020CB SCT100 
     BECMG 1407/1412 17009KT 9999 FEW024 FEW026CB